sensor_id;sensor_type;location;lat;lon;timestamp;pressure;altitude;pressure_sealevel;temperature;humidity
1029;BME280;503;48.120;11.488;2022-11-20T00:02:02;94782.25;;;8.19;64.11
1029;BME280;503;48.120;11.488;2022-11-20T00:04:27;94784.91;;;9.14;61.78
1029;BME280;503;48.120;11.488;2022-11-20T00:06:52;94785.88;;;8.73;62.24
1029;BME280;503;48.120;11.488;2022-11-20T00:09:18;94785.66;;;9.36;60.83
1029;BME280;503;48.120;11.488;2022-11-20T00:11:43;94782.97;;;9.59;60.50
1029;BME280;503;48.120;11.488;2022-11-20T00:14:08;94784.53;;;9.29;60.29
1029;BME280;503;48.120;11.488;2022-11-20T00:16:34;94794.31;;;9.51;60.41
1029;BME280;503;48.120;11.488;2022-11-20T00:18:59;94791.81;;;9.46;59.90
1029;BME280;503;48.120;11.488;2022-11-20T00:21:25;94792.19;;;9.30;60.90
1029;BME280;503;48.120;11.488;2022-11-20T00:23:51;94792.34;;;9.03;61.35
1029;BME280;503;48.120;11.488;2022-11-20T00:26:18;94790.28;;;8.55;62.89
1029;BME280;503;48.120;11.488;2022-11-20T00:28:44;94793.16;;;9.34;61.42
1029;BME280;503;48.120;11.488;2022-11-20T00:31:13;94794.63;;;9.18;62.40
1029;BME280;503;48.120;11.488;2022-11-20T00:33:39;94795.03;;;9.34;61.07
1029;BME280;503;48.120;11.488;2022-11-20T00:36:05;94797.88;;;8.93;62.34
1029;BME280;503;48.120;11.488;2022-11-20T00:38:31;94799.09;;;8.87;62.61
1029;BME280;503;48.120;11.488;2022-11-20T00:40:57;94799.13;;;8.73;62.61
1029;BME280;503;48.120;11.488;2022-11-20T00:43:23;94799.63;;;9.20;61.60
1029;BME280;503;48.120;11.488;2022-11-20T00:45:48;94803.44;;;9.58;60.46
1029;BME280;503;48.120;11.488;2022-11-20T00:48:13;94800.41;;;8.75;62.42
1029;BME280;503;48.120;11.488;2022-11-20T00:50:39;94801.69;;;9.23;60.58
1029;BME280;503;48.120;11.488;2022-11-20T00:53:04;94806.28;;;9.40;60.90
1029;BME280;503;48.120;11.488;2022-11-20T00:55:29;94803.06;;;9.20;61.18
1029;BME280;503;48.120;11.488;2022-11-20T00:57:55;94808.00;;;9.13;61.37
1029;BME280;503;48.120;11.488;2022-11-20T01:00:20;94818.34;;;9.77;59.99
1029;BME280;503;48.120;11.488;2022-11-20T01:02:45;94815.59;;;9.28;60.39
1029;BME280;503;48.120;11.488;2022-11-20T01:05:10;94812.81;;;9.33;60.32
1029;BME280;503;48.120;11.488;2022-11-20T01:07:35;94817.75;;;9.80;59.74
1029;BME280;503;48.120;11.488;2022-11-20T01:10:01;94820.03;;;10.12;59.59
1029;BME280;503;48.120;11.488;2022-11-20T01:12:26;94825.53;;;9.76;59.33
1029;BME280;503;48.120;11.488;2022-11-20T01:14:51;94822.00;;;9.27;60.55
1029;BME280;503;48.120;11.488;2022-11-20T01:17:17;94821.09;;;9.32;60.44
1029;BME280;503;48.120;11.488;2022-11-20T01:19:42;94823.13;;;9.57;60.72
1029;BME280;503;48.120;11.488;2022-11-20T01:22:07;94815.97;;;10.06;58.82
1029;BME280;503;48.120;11.488;2022-11-20T01:24:32;94819.59;;;9.17;60.65
1029;BME280;503;48.120;11.488;2022-11-20T01:26:58;94821.13;;;10.11;58.60
1029;BME280;503;48.120;11.488;2022-11-20T01:29:23;94824.16;;;9.79;58.84
1029;BME280;503;48.120;11.488;2022-11-20T01:31:49;94819.38;;;9.67;58.50
1029;BME280;503;48.120;11.488;2022-11-20T01:34:18;94827.66;;;9.97;59.11
1029;BME280;503;48.120;11.488;2022-11-20T01:36:43;94827.16;;;9.55;58.97
1029;BME280;503;48.120;11.488;2022-11-20T01:39:19;94825.19;;;9.69;59.47
1029;BME280;503;48.120;11.488;2022-11-20T01:41:45;94822.53;;;9.16;59.91
1029;BME280;503;48.120;11.488;2022-11-20T01:44:47;94832.59;;;9.81;59.81
1029;BME280;503;48.120;11.488;2022-11-20T01:47:14;94837.03;;;9.63;59.43
1029;BME280;503;48.120;11.488;2022-11-20T01:49:42;94830.00;;;9.36;60.53
1029;BME280;503;48.120;11.488;2022-11-20T01:52:13;94834.28;;;9.46;59.42
1029;BME280;503;48.120;11.488;2022-11-20T01:54:41;94831.31;;;10.09;58.23
1029;BME280;503;48.120;11.488;2022-11-20T01:57:08;94827.81;;;9.60;58.70
1029;BME280;503;48.120;11.488;2022-11-20T01:59:37;94832.53;;;9.63;59.29
1029;BME280;503;48.120;11.488;2022-11-20T02:02:04;94829.53;;;9.96;58.60
1029;BME280;503;48.120;11.488;2022-11-20T02:04:29;94827.34;;;9.36;60.00
1029;BME280;503;48.120;11.488;2022-11-20T02:06:57;94826.56;;;9.35;60.48
1029;BME280;503;48.120;11.488;2022-11-20T02:09:24;94839.56;;;9.68;59.38
1029;BME280;503;48.120;11.488;2022-11-20T02:11:50;94829.28;;;9.75;59.21
1029;BME280;503;48.120;11.488;2022-11-20T02:14:15;94834.47;;;9.04;60.74
1029;BME280;503;48.120;11.488;2022-11-20T02:16:43;94832.69;;;9.14;61.00
1029;BME280;503;48.120;11.488;2022-11-20T02:19:14;94837.22;;;8.77;61.98
1029;BME280;503;48.120;11.488;2022-11-20T02:21:49;94836.34;;;9.04;61.39
1029;BME280;503;48.120;11.488;2022-11-20T02:24:19;94835.47;;;8.72;62.66
1029;BME280;503;48.120;11.488;2022-11-20T02:26:48;94832.63;;;9.27;60.25
1029;BME280;503;48.120;11.488;2022-11-20T02:29:16;94834.50;;;8.68;61.83
1029;BME280;503;48.120;11.488;2022-11-20T02:31:42;94844.19;;;8.37;63.39
1029;BME280;503;48.120;11.488;2022-11-20T02:34:08;94831.47;;;8.97;61.20
1029;BME280;503;48.120;11.488;2022-11-20T02:36:34;94828.56;;;9.30;61.13
1029;BME280;503;48.120;11.488;2022-11-20T02:39:00;94830.16;;;9.93;59.15
1029;BME280;503;48.120;11.488;2022-11-20T02:41:32;94837.13;;;9.04;59.99
1029;BME280;503;48.120;11.488;2022-11-20T02:43:58;94836.31;;;9.18;60.06
1029;BME280;503;48.120;11.488;2022-11-20T02:46:23;94833.34;;;8.97;61.00
1029;BME280;503;48.120;11.488;2022-11-20T02:48:48;94830.94;;;9.09;59.98
1029;BME280;503;48.120;11.488;2022-11-20T02:51:14;94838.59;;;8.74;61.23
1029;BME280;503;48.120;11.488;2022-11-20T02:53:39;94832.59;;;9.05;61.02
1029;BME280;503;48.120;11.488;2022-11-20T02:56:04;94839.16;;;8.49;62.32
1029;BME280;503;48.120;11.488;2022-11-20T02:58:30;94830.31;;;9.34;60.21
1029;BME280;503;48.120;11.488;2022-11-20T03:00:55;94835.38;;;8.77;61.73
1029;BME280;503;48.120;11.488;2022-11-20T03:03:20;94838.50;;;8.79;61.07
1029;BME280;503;48.120;11.488;2022-11-20T03:05:45;94834.97;;;9.06;60.60
1029;BME280;503;48.120;11.488;2022-11-20T03:08:10;94829.84;;;8.88;60.95
1029;BME280;503;48.120;11.488;2022-11-20T03:10:36;94832.81;;;8.72;61.45
1029;BME280;503;48.120;11.488;2022-11-20T03:13:01;94831.28;;;8.94;60.63
1029;BME280;503;48.120;11.488;2022-11-20T03:15:26;94833.88;;;9.52;58.67
1029;BME280;503;48.120;11.488;2022-11-20T03:17:54;94830.69;;;8.97;59.77
1029;BME280;503;48.120;11.488;2022-11-20T03:20:20;94834.56;;;8.91;60.15
1029;BME280;503;48.120;11.488;2022-11-20T03:22:45;94830.84;;;9.00;59.71
1029;BME280;503;48.120;11.488;2022-11-20T03:25:10;94827.84;;;9.16;59.95
1029;BME280;503;48.120;11.488;2022-11-20T03:27:35;94822.00;;;8.82;60.55
1029;BME280;503;48.120;11.488;2022-11-20T03:30:01;94826.84;;;9.56;58.88
1029;BME280;503;48.120;11.488;2022-11-20T03:32:26;94831.75;;;8.73;60.20
1029;BME280;503;48.120;11.488;2022-11-20T03:34:51;94821.22;;;9.04;60.19
1029;BME280;503;48.120;11.488;2022-11-20T03:37:17;94829.88;;;9.41;58.97
1029;BME280;503;48.120;11.488;2022-11-20T03:39:42;94825.56;;;9.23;58.68
1029;BME280;503;48.120;11.488;2022-11-20T03:42:08;94826.53;;;9.04;59.57
1029;BME280;503;48.120;11.488;2022-11-20T03:44:53;94828.47;;;9.13;58.97
1029;BME280;503;48.120;11.488;2022-11-20T03:47:18;94828.63;;;8.71;60.75
1029;BME280;503;48.120;11.488;2022-11-20T03:49:43;94825.56;;;9.23;59.20
1029;BME280;503;48.120;11.488;2022-11-20T03:52:09;94825.19;;;8.93;60.18
1029;BME280;503;48.120;11.488;2022-11-20T03:54:34;94825.19;;;9.38;58.61
1029;BME280;503;48.120;11.488;2022-11-20T03:56:59;94834.16;;;8.47;61.06
1029;BME280;503;48.120;11.488;2022-11-20T03:59:24;94837.53;;;8.75;60.01
1029;BME280;503;48.120;11.488;2022-11-20T04:01:50;94835.03;;;8.56;61.27
1029;BME280;503;48.120;11.488;2022-11-20T04:04:15;94834.88;;;8.75;60.52
1029;BME280;503;48.120;11.488;2022-11-20T04:06:41;94838.50;;;8.79;60.78
1029;BME280;503;48.120;11.488;2022-11-20T04:09:06;94836.72;;;8.75;59.95
1029;BME280;503;48.120;11.488;2022-11-20T04:11:32;94838.16;;;9.40;58.73
1029;BME280;503;48.120;11.488;2022-11-20T04:13:59;94828.19;;;9.00;59.01
1029;BME280;503;48.120;11.488;2022-11-20T04:16:25;94835.38;;;9.00;59.35
1029;BME280;503;48.120;11.488;2022-11-20T04:18:54;94827.06;;;9.37;58.85
1029;BME280;503;48.120;11.488;2022-11-20T04:21:20;94833.31;;;8.74;59.93
1029;BME280;503;48.120;11.488;2022-11-20T04:23:45;94825.38;;;9.19;58.69
1029;BME280;503;48.120;11.488;2022-11-20T04:26:11;94830.13;;;9.53;57.43
1029;BME280;503;48.120;11.488;2022-11-20T04:28:37;94829.19;;;9.27;58.36
1029;BME280;503;48.120;11.488;2022-11-20T04:31:06;94834.19;;;9.28;58.27
1029;BME280;503;48.120;11.488;2022-11-20T04:33:32;94830.16;;;9.93;57.42
1029;BME280;503;48.120;11.488;2022-11-20T04:36:31;94834.66;;;9.84;56.84
1029;BME280;503;48.120;11.488;2022-11-20T04:38:55;94838.34;;;9.74;56.95
1029;BME280;503;48.120;11.488;2022-11-20T04:41:21;94835.44;;;10.24;56.10
1029;BME280;503;48.120;11.488;2022-11-20T04:43:49;94840.91;;;10.28;55.07
1029;BME280;503;48.120;11.488;2022-11-20T04:46:15;94837.78;;;10.26;55.99
1029;BME280;503;48.120;11.488;2022-11-20T04:48:40;94830.81;;;10.07;56.16
1029;BME280;503;48.120;11.488;2022-11-20T04:51:06;94838.00;;;9.98;56.58
1029;BME280;503;48.120;11.488;2022-11-20T04:53:31;94837.97;;;10.29;55.45
1029;BME280;503;48.120;11.488;2022-11-20T04:56:00;94840.06;;;10.10;55.84
1029;BME280;503;48.120;11.488;2022-11-20T04:58:26;94836.81;;;10.22;56.24
1029;BME280;503;48.120;11.488;2022-11-20T05:00:51;94840.13;;;9.56;57.08
1029;BME280;503;48.120;11.488;2022-11-20T05:03:17;94838.34;;;9.74;56.82
1029;BME280;503;48.120;11.488;2022-11-20T05:05:42;94836.56;;;10.01;55.84
1029;BME280;503;48.120;11.488;2022-11-20T05:08:08;94835.44;;;9.84;56.97
1029;BME280;503;48.120;11.488;2022-11-20T05:10:33;94827.72;;;9.74;56.91
1029;BME280;503;48.120;11.488;2022-11-20T05:12:58;94835.38;;;9.76;57.56
1029;BME280;503;48.120;11.488;2022-11-20T05:15:23;94833.88;;;9.92;56.70
1029;BME280;503;48.120;11.488;2022-11-20T05:17:49;94839.03;;;9.88;56.78
1029;BME280;503;48.120;11.488;2022-11-20T05:20:15;94836.28;;;9.71;57.17
1029;BME280;503;48.120;11.488;2022-11-20T05:22:40;94837.34;;;9.61;57.05
1029;BME280;503;48.120;11.488;2022-11-20T05:25:06;94839.19;;;9.30;58.04
1029;BME280;503;48.120;11.488;2022-11-20T05:27:31;94833.34;;;9.19;57.84
1029;BME280;503;48.120;11.488;2022-11-20T05:29:56;94845.78;;;9.32;57.79
1029;BME280;503;48.120;11.488;2022-11-20T05:32:22;94842.38;;;9.18;58.24
1029;BME280;503;48.120;11.488;2022-11-20T05:34:50;94834.25;;;8.92;59.18
1029;BME280;503;48.120;11.488;2022-11-20T05:37:15;94841.41;;;9.14;58.25
1029;BME280;503;48.120;11.488;2022-11-20T05:39:40;94839.38;;;9.33;58.55
1029;BME280;503;48.120;11.488;2022-11-20T05:42:06;94833.34;;;8.97;58.94
1029;BME280;503;48.120;11.488;2022-11-20T05:44:50;94841.38;;;9.28;57.84
1029;BME280;503;48.120;11.488;2022-11-20T05:47:15;94844.13;;;9.45;57.75
1029;BME280;503;48.120;11.488;2022-11-20T05:49:40;94843.28;;;9.36;57.67
1029;BME280;503;48.120;11.488;2022-11-20T05:52:05;94841.06;;;9.29;58.12
1029;BME280;503;48.120;11.488;2022-11-20T05:54:30;94843.22;;;9.50;57.63
1029;BME280;503;48.120;11.488;2022-11-20T05:56:56;94840.44;;;9.55;56.89
1029;BME280;503;48.120;11.488;2022-11-20T05:59:21;94841.91;;;10.01;55.42
1029;BME280;503;48.120;11.488;2022-11-20T06:01:46;94835.56;;;9.79;55.66
1029;BME280;503;48.120;11.488;2022-11-20T06:04:11;94845.47;;;9.96;55.66
1029;BME280;503;48.120;11.488;2022-11-20T06:06:37;94836.13;;;10.07;55.19
1029;BME280;503;48.120;11.488;2022-11-20T06:09:02;94850.19;;;10.08;55.10
1029;BME280;503;48.120;11.488;2022-11-20T06:11:27;94846.56;;;9.95;55.25
1029;BME280;503;48.120;11.488;2022-11-20T06:13:52;94841.78;;;9.44;56.52
1029;BME280;503;48.120;11.488;2022-11-20T06:16:18;94841.09;;;9.16;56.23
1029;BME280;503;48.120;11.488;2022-11-20T06:18:44;94842.50;;;8.91;57.08
1029;BME280;503;48.120;11.488;2022-11-20T06:21:10;94837.78;;;9.10;56.92
1029;BME280;503;48.120;11.488;2022-11-20T06:23:36;94840.31;;;8.56;57.70
1029;BME280;503;48.120;11.488;2022-11-20T06:26:02;94841.88;;;8.94;57.35
1029;BME280;503;48.120;11.488;2022-11-20T06:28:28;94841.72;;;9.13;56.04
1029;BME280;503;48.120;11.488;2022-11-20T06:30:53;94836.47;;;8.99;56.09
1029;BME280;503;48.120;11.488;2022-11-20T06:33:18;94849.84;;;8.44;57.08
1029;BME280;503;48.120;11.488;2022-11-20T06:35:43;94848.88;;;8.53;57.03
1029;BME280;503;48.120;11.488;2022-11-20T06:38:09;94847.81;;;8.41;57.21
1029;BME280;503;48.120;11.488;2022-11-20T06:40:34;94851.03;;;8.51;56.74
1029;BME280;503;48.120;11.488;2022-11-20T06:42:59;94852.91;;;8.37;56.64
1029;BME280;503;48.120;11.488;2022-11-20T06:45:24;94862.88;;;8.68;56.18
1029;BME280;503;48.120;11.488;2022-11-20T06:47:50;94861.44;;;9.20;54.99
1029;BME280;503;48.120;11.488;2022-11-20T06:50:15;94862.97;;;8.76;55.53
1029;BME280;503;48.120;11.488;2022-11-20T06:52:40;94864.63;;;8.86;55.71
1029;BME280;503;48.120;11.488;2022-11-20T06:55:06;94859.19;;;9.36;54.95
1029;BME280;503;48.120;11.488;2022-11-20T06:57:31;94870.66;;;9.45;54.35
1029;BME280;503;48.120;11.488;2022-11-20T06:59:56;94872.69;;;9.71;53.78
1029;BME280;503;48.120;11.488;2022-11-20T07:02:22;94873.84;;;10.18;53.24
1029;BME280;503;48.120;11.488;2022-11-20T07:04:47;94875.03;;;10.34;52.56
1029;BME280;503;48.120;11.488;2022-11-20T07:07:12;94881.78;;;10.40;52.09
1029;BME280;503;48.120;11.488;2022-11-20T07:09:37;94874.97;;;10.65;51.30
1029;BME280;503;48.120;11.488;2022-11-20T07:12:03;94878.06;;;10.59;51.62
1029;BME280;503;48.120;11.488;2022-11-20T07:14:28;94876.84;;;10.74;51.17
1029;BME280;503;48.120;11.488;2022-11-20T07:16:53;94879.38;;;10.87;50.75
1029;BME280;503;48.120;11.488;2022-11-20T07:19:19;94881.72;;;10.98;50.87
1029;BME280;503;48.120;11.488;2022-11-20T07:21:44;94884.56;;;11.01;49.76
1029;BME280;503;48.120;11.488;2022-11-20T07:24:09;94888.78;;;11.11;50.72
1029;BME280;503;48.120;11.488;2022-11-20T07:26:34;94886.59;;;11.13;50.25
1029;BME280;503;48.120;11.488;2022-11-20T07:29:00;94880.00;;;10.93;50.57
1029;BME280;503;48.120;11.488;2022-11-20T07:31:25;94889.38;;;10.82;50.05
1029;BME280;503;48.120;11.488;2022-11-20T07:33:51;94890.72;;;10.13;52.31
1029;BME280;503;48.120;11.488;2022-11-20T07:36:16;94883.38;;;10.59;52.14
1029;BME280;503;48.120;11.488;2022-11-20T07:38:41;94887.50;;;10.82;51.79
1029;BME280;503;48.120;11.488;2022-11-20T07:41:06;94882.34;;;10.86;51.17
1029;BME280;503;48.120;11.488;2022-11-20T07:43:32;94884.53;;;10.75;51.54
1029;BME280;503;48.120;11.488;2022-11-20T07:45:58;94885.00;;;10.86;51.13
1029;BME280;503;48.120;11.488;2022-11-20T07:48:24;94882.97;;;11.09;51.25
1029;BME280;503;48.120;11.488;2022-11-20T07:50:49;94892.69;;;11.13;50.52
1029;BME280;503;48.120;11.488;2022-11-20T07:53:14;94889.88;;;11.01;50.92
1029;BME280;503;48.120;11.488;2022-11-20T07:55:45;94883.31;;;11.16;50.55
1029;BME280;503;48.120;11.488;2022-11-20T07:58:10;94883.75;;;11.18;49.91
1029;BME280;503;48.120;11.488;2022-11-20T08:00:36;94891.25;;;10.81;50.75
1029;BME280;503;48.120;11.488;2022-11-20T08:03:02;94889.03;;;10.75;50.63
1029;BME280;503;48.120;11.488;2022-11-20T08:05:28;94890.97;;;10.91;50.31
1029;BME280;503;48.120;11.488;2022-11-20T08:07:53;94890.66;;;11.36;49.92
1029;BME280;503;48.120;11.488;2022-11-20T08:10:18;94897.84;;;11.18;50.22
1029;BME280;503;48.120;11.488;2022-11-20T08:12:47;94895.50;;;11.52;50.02
1029;BME280;503;48.120;11.488;2022-11-20T08:15:31;94902.53;;;10.30;51.01
1029;BME280;503;48.120;11.488;2022-11-20T08:18:14;94899.69;;;10.75;51.24
1029;BME280;503;48.120;11.488;2022-11-20T08:20:40;94906.69;;;10.22;52.38
1029;BME280;503;48.120;11.488;2022-11-20T08:23:06;94895.59;;;10.68;51.10
1029;BME280;503;48.120;11.488;2022-11-20T08:25:32;94907.41;;;11.02;50.91
1029;BME280;503;48.120;11.488;2022-11-20T08:27:58;94899.22;;;10.73;50.64
1029;BME280;503;48.120;11.488;2022-11-20T08:30:23;94904.84;;;10.71;51.33
1029;BME280;503;48.120;11.488;2022-11-20T08:32:49;94905.03;;;10.26;52.29
1029;BME280;503;48.120;11.488;2022-11-20T08:35:16;94907.06;;;10.86;51.48
1029;BME280;503;48.120;11.488;2022-11-20T08:37:41;94898.94;;;11.35;51.67
1029;BME280;503;48.120;11.488;2022-11-20T08:40:10;94897.34;;;11.68;49.79
1029;BME280;503;48.120;11.488;2022-11-20T08:42:36;94896.41;;;11.82;49.71
1029;BME280;503;48.120;11.488;2022-11-20T08:45:01;94895.38;;;12.12;48.24
1029;BME280;503;48.120;11.488;2022-11-20T08:47:26;94892.00;;;11.77;48.09
1029;BME280;503;48.120;11.488;2022-11-20T08:49:52;94903.66;;;11.03;48.89
1029;BME280;503;48.120;11.488;2022-11-20T08:52:17;94893.44;;;10.71;50.60
1029;BME280;503;48.120;11.488;2022-11-20T08:54:43;94899.44;;;10.36;50.50
1029;BME280;503;48.120;11.488;2022-11-20T08:57:08;94901.56;;;9.63;53.10
1029;BME280;503;48.120;11.488;2022-11-20T08:59:33;94898.50;;;11.07;50.36
1029;BME280;503;48.120;11.488;2022-11-20T09:01:58;94898.00;;;10.96;49.68
1029;BME280;503;48.120;11.488;2022-11-20T09:04:24;94893.31;;;11.19;49.21
1029;BME280;503;48.120;11.488;2022-11-20T09:06:49;94898.81;;;10.39;51.05
1029;BME280;503;48.120;11.488;2022-11-20T09:09:16;94893.59;;;10.83;49.70
1029;BME280;503;48.120;11.488;2022-11-20T09:11:41;94891.13;;;10.29;50.57
1029;BME280;503;48.120;11.488;2022-11-20T09:14:07;94890.66;;;11.02;48.85
1029;BME280;503;48.120;11.488;2022-11-20T09:16:32;94885.47;;;11.57;47.48
1029;BME280;503;48.120;11.488;2022-11-20T09:18:58;94891.19;;;10.15;49.52
1029;BME280;503;48.120;11.488;2022-11-20T09:21:23;94892.53;;;11.01;49.23
1029;BME280;503;48.120;11.488;2022-11-20T09:23:49;94896.59;;;10.99;49.29
1029;BME280;503;48.120;11.488;2022-11-20T09:26:14;94888.47;;;11.12;48.41
1029;BME280;503;48.120;11.488;2022-11-20T09:28:40;94887.97;;;11.10;48.02
1029;BME280;503;48.120;11.488;2022-11-20T09:31:08;94881.88;;;11.62;47.12
1029;BME280;503;48.120;11.488;2022-11-20T09:33:34;94869.81;;;11.38;48.32
1029;BME280;503;48.120;11.488;2022-11-20T09:36:00;94876.50;;;11.70;47.29
1029;BME280;503;48.120;11.488;2022-11-20T09:38:25;94881.56;;;11.20;47.52
1029;BME280;503;48.120;11.488;2022-11-20T09:43:35;94881.88;;;11.27;46.96
1029;BME280;503;48.120;11.488;2022-11-20T09:46:14;94873.59;;;11.29;46.86
1029;BME280;503;48.120;11.488;2022-11-20T09:48:48;94870.44;;;10.83;48.00
1029;BME280;503;48.120;11.488;2022-11-20T09:56:39;94863.34;;;12.59;44.61
1029;BME280;503;48.120;11.488;2022-11-20T09:59:06;94864.31;;;10.74;47.50
1029;BME280;503;48.120;11.488;2022-11-20T10:01:34;94854.53;;;11.82;46.37
1029;BME280;503;48.120;11.488;2022-11-20T10:04:02;94857.41;;;10.64;48.52
1029;BME280;503;48.120;11.488;2022-11-20T10:06:39;94851.63;;;11.49;46.90
1029;BME280;503;48.120;11.488;2022-11-20T10:11:39;94853.72;;;12.67;44.83
1029;BME280;503;48.120;11.488;2022-11-20T10:16:56;94856.44;;;11.73;46.25
1029;BME280;503;48.120;11.488;2022-11-20T10:27:13;94866.41;;;11.12;47.48
1029;BME280;503;48.120;11.488;2022-11-20T10:29:42;94851.25;;;11.85;46.37
1029;BME280;503;48.120;11.488;2022-11-20T10:32:10;94864.81;;;11.28;47.05
1029;BME280;503;48.120;11.488;2022-11-20T10:37:12;94846.59;;;11.65;46.86
1029;BME280;503;48.120;11.488;2022-11-20T10:42:34;94854.94;;;11.20;47.00
1029;BME280;503;48.120;11.488;2022-11-20T10:45:09;94862.09;;;10.59;48.16
1029;BME280;503;48.120;11.488;2022-11-20T10:47:38;94855.38;;;12.12;45.20
1029;BME280;503;48.120;11.488;2022-11-20T10:50:04;94871.38;;;10.79;47.67
1029;BME280;503;48.120;11.488;2022-11-20T11:00:32;94873.56;;;10.20;49.33
1029;BME280;503;48.120;11.488;2022-11-20T11:02:57;94862.28;;;10.80;48.79
1029;BME280;503;48.120;11.488;2022-11-20T11:07:57;94857.59;;;10.68;48.87
1029;BME280;503;48.120;11.488;2022-11-20T11:12:48;94848.19;;;10.79;48.92
1029;BME280;503;48.120;11.488;2022-11-20T11:15:29;94854.09;;;10.02;50.34
1029;BME280;503;48.120;11.488;2022-11-20T11:17:55;94846.56;;;10.44;49.63
1029;BME280;503;48.120;11.488;2022-11-20T11:20:21;94845.47;;;9.96;51.50
1029;BME280;503;48.120;11.488;2022-11-20T11:22:51;94836.38;;;10.28;50.95
1029;BME280;503;48.120;11.488;2022-11-20T11:27:46;94848.94;;;8.98;53.64
1029;BME280;503;48.120;11.488;2022-11-20T11:30:13;94832.97;;;9.66;51.70
1029;BME280;503;48.120;11.488;2022-11-20T11:32:39;94835.50;;;10.59;49.63
1029;BME280;503;48.120;11.488;2022-11-20T11:35:05;94825.06;;;10.23;51.04
1029;BME280;503;48.120;11.488;2022-11-20T11:37:35;94833.13;;;10.40;50.38
1029;BME280;503;48.120;11.488;2022-11-20T11:40:01;94827.53;;;10.85;48.51
1029;BME280;503;48.120;11.488;2022-11-20T11:42:26;94818.16;;;11.13;48.65
1029;BME280;503;48.120;11.488;2022-11-20T11:44:53;94824.81;;;10.33;50.03
1029;BME280;503;48.120;11.488;2022-11-20T11:55:16;94831.72;;;10.03;51.77
1029;BME280;503;48.120;11.488;2022-11-20T12:00:21;94832.97;;;9.66;51.50
1029;BME280;503;48.120;11.488;2022-11-20T12:05:16;94843.03;;;9.77;51.77
1029;BME280;503;48.120;11.488;2022-11-20T12:07:43;94824.31;;;9.51;53.76
1029;BME280;503;48.120;11.488;2022-11-20T12:12:55;94847.06;;;8.76;56.74
1029;BME280;503;48.120;11.488;2022-11-20T12:15:29;94841.75;;;8.76;57.12
1029;BME280;503;48.120;11.488;2022-11-20T12:17:54;94844.41;;;8.76;56.18
1029;BME280;503;48.120;11.488;2022-11-20T12:20:20;94834.59;;;8.99;55.84
1029;BME280;503;48.120;11.488;2022-11-20T12:22:55;94836.13;;;8.92;57.11
1029;BME280;503;48.120;11.488;2022-11-20T12:25:32;94830.50;;;9.16;57.94
1029;BME280;503;48.120;11.488;2022-11-20T12:28:06;94835.63;;;8.53;58.99
1029;BME280;503;48.120;11.488;2022-11-20T12:30:41;94718.97;;;8.03;60.15
1029;BME280;503;48.120;11.488;2022-11-20T12:41:21;94822.81;;;9.59;57.29
1029;BME280;503;48.120;11.488;2022-11-20T12:52:23;94826.81;;;8.80;58.54
1029;BME280;503;48.120;11.488;2022-11-20T13:02:27;94818.88;;;10.27;55.88
1029;BME280;503;48.120;11.488;2022-11-20T13:07:23;94821.13;;;9.41;57.30
1029;BME280;503;48.120;11.488;2022-11-20T13:09:49;94832.69;;;9.98;56.01
1029;BME280;503;48.120;11.488;2022-11-20T13:14:50;94814.69;;;9.33;59.80
1029;BME280;503;48.120;11.488;2022-11-20T13:19:50;94813.34;;;8.13;62.91
1029;BME280;503;48.120;11.488;2022-11-20T13:22:23;94809.22;;;8.34;63.19
1029;BME280;503;48.120;11.488;2022-11-20T13:24:52;94801.31;;;9.16;62.17
1029;BME280;503;48.120;11.488;2022-11-20T13:27:18;94801.03;;;9.17;61.63
1029;BME280;503;48.120;11.488;2022-11-20T13:29:45;94801.63;;;8.92;62.80
1029;BME280;503;48.120;11.488;2022-11-20T13:32:18;94797.75;;;8.75;62.97
1029;BME280;503;48.120;11.488;2022-11-20T13:37:39;94793.75;;;9.31;61.17
1029;BME280;503;48.120;11.488;2022-11-20T13:42:35;94783.19;;;8.87;62.13
1029;BME280;503;48.120;11.488;2022-11-20T13:45:02;94785.81;;;8.64;62.59
1029;BME280;503;48.120;11.488;2022-11-20T13:47:28;94781.56;;;9.30;61.35
1029;BME280;503;48.120;11.488;2022-11-20T13:49:57;94784.47;;;9.20;60.74
1029;BME280;503;48.120;11.488;2022-11-20T13:53:07;94784.72;;;9.72;59.31
1029;BME280;503;48.120;11.488;2022-11-20T13:57:47;94780.59;;;8.59;61.35
1029;BME280;503;48.120;11.488;2022-11-20T14:00:19;94777.72;;;8.69;61.52
1029;BME280;503;48.120;11.488;2022-11-20T14:02:48;94787.66;;;8.41;62.01
1029;BME280;503;48.120;11.488;2022-11-20T14:05:21;94785.06;;;8.50;61.03
1029;BME280;503;48.120;11.488;2022-11-20T14:07:47;94788.97;;;8.52;61.38
1029;BME280;503;48.120;11.488;2022-11-20T14:12:47;94789.94;;;8.70;61.07
1029;BME280;503;48.120;11.488;2022-11-20T14:15:24;94788.34;;;8.69;60.57
1029;BME280;503;48.120;11.488;2022-11-20T14:17:49;94795.41;;;8.96;59.81
1029;BME280;503;48.120;11.488;2022-11-20T14:20:15;94788.53;;;9.18;59.19
1029;BME280;503;48.120;11.488;2022-11-20T14:22:47;94792.94;;;8.77;59.70
1029;BME280;503;48.120;11.488;2022-11-20T14:27:41;94782.97;;;9.28;58.36
1029;BME280;503;48.120;11.488;2022-11-20T14:30:14;94792.94;;;9.00;58.94
1029;BME280;503;48.120;11.488;2022-11-20T14:32:40;94792.31;;;9.25;58.81
1029;BME280;503;48.120;11.488;2022-11-20T14:35:09;94795.47;;;9.05;57.84
1029;BME280;503;48.120;11.488;2022-11-20T14:37:38;94666.09;;;7.76;59.77
1029;BME280;503;48.120;11.488;2022-11-20T14:42:47;94796.59;;;8.68;59.58
1029;BME280;503;48.120;11.488;2022-11-20T14:45:13;94791.38;;;8.26;60.37
1029;BME280;503;48.120;11.488;2022-11-20T14:47:39;94790.94;;;8.83;58.82
1029;BME280;503;48.120;11.488;2022-11-20T14:50:07;94790.63;;;8.62;58.34
1029;BME280;503;48.120;11.488;2022-11-20T14:52:33;94791.28;;;8.18;59.86
1029;BME280;503;48.120;11.488;2022-11-20T14:54:58;94801.00;;;8.36;59.08
1029;BME280;503;48.120;11.488;2022-11-20T14:57:31;94794.59;;;8.23;59.29
1029;BME280;503;48.120;11.488;2022-11-20T15:00:04;94787.22;;;8.34;59.43
1029;BME280;503;48.120;11.488;2022-11-20T15:02:30;94785.31;;;8.40;59.34
1029;BME280;503;48.120;11.488;2022-11-20T15:04:59;94793.72;;;8.28;59.28
1029;BME280;503;48.120;11.488;2022-11-20T15:07:29;94791.41;;;7.99;60.12
1029;BME280;503;48.120;11.488;2022-11-20T15:12:26;94796.56;;;8.18;59.96
1029;BME280;503;48.120;11.488;2022-11-20T15:14:52;94788.63;;;8.31;59.95
1029;BME280;503;48.120;11.488;2022-11-20T15:17:17;94792.16;;;8.13;59.99